Time;durP1;ratioP1;P1;durP2;ratioP2;P2;SDS_P1;SDS_P2;PMS_P1;PMS_P2;Temp;Humidity;BMP_temperature;BMP_pressure;BME280_temperature;BME280_humidity;BME280_pressure;Samples;Min_cycle;Max_cycle;Signal;HPM_P1;HPM_P2
2023/03/21 00:00:47;;;;;;;27.58;20.00;;;;;;;;;;5140449;27;20119;-86
2023/03/21 00:03:15;;;;;;;31.45;21.35;;;;;;;;;;5141565;27;20308;-87
2023/03/21 00:05:41;;;;;;;30.05;21.27;;;;;;;;;;5141157;27;20047;-86
2023/03/21 00:08:08;;;;;;;30.10;20.25;;;;;;;;;;5139910;27;20043;-86
2023/03/21 00:10:34;;;;;;;27.60;18.85;;;;;;;;;;5141187;27;20110;-86
2023/03/21 00:13:00;;;;;;;27.17;18.73;;;;;;;;;;5141089;27;20309;-87
2023/03/21 00:15:28;;;;;;;24.35;18.52;;;;;;;;;;5141165;27;20019;-86
2023/03/21 00:18:02;;;;;;;26.30;18.30;;;;;;;;;;5141155;27;20034;-86
2023/03/21 00:20:33;;;;;;;23.88;17.73;;;;;;;;;;5140786;27;20034;-86
2023/03/21 00:23:00;;;;;;;26.25;18.52;;;;;;;;;;5139900;27;20019;-87
2023/03/21 00:25:26;;;;;;;25.02;18.27;;;;;;;;;;5140920;27;20092;-87
2023/03/21 00:27:52;;;;;;;28.60;18.17;;;;;;;;;;5140798;27;20027;-87
2023/03/21 00:30:18;;;;;;;24.85;17.70;;;;;;;;;;5141034;27;20076;-87
2023/03/21 00:32:46;;;;;;;26.70;18.38;;;;;;;;;;5140747;27;20015;-87
2023/03/21 00:35:12;;;;;;;27.27;18.60;;;;;;;;;;5140544;27;20072;-87
2023/03/21 00:37:38;;;;;;;27.73;18.25;;;;;;;;;;5140290;27;20050;-86
2023/03/21 00:40:08;;;;;;;23.90;18.38;;;;;;;;;;5140489;27;20019;-86
2023/03/21 00:42:35;;;;;;;23.63;17.92;;;;;;;;;;5139378;27;20023;-85
2023/03/21 00:45:02;;;;;;;26.02;17.92;;;;;;;;;;5140219;27;20401;-86
2023/03/21 00:47:28;;;;;;;27.92;19.50;;;;;;;;;;5140139;27;20019;-86
2023/03/21 00:49:54;;;;;;;25.58;19.42;;;;;;;;;;5139344;27;20031;-86
2023/03/21 00:52:21;;;;;;;32.10;23.05;;;;;;;;;;5139024;27;20340;-86
2023/03/21 00:54:47;;;;;;;32.97;23.73;;;;;;;;;;5139011;27;20034;-86
2023/03/21 00:57:13;;;;;;;32.15;22.45;;;;;;;;;;5140302;27;20019;-86
2023/03/21 00:59:39;;;;;;;26.65;20.35;;;;;;;;;;5140071;27;20068;-86
2023/03/21 01:02:06;;;;;;;27.05;20.33;;;;;;;;;;5140109;27;20023;-85
2023/03/21 01:04:33;;;;;;;28.02;19.35;;;;;;;;;;5139074;27;20020;-86
2023/03/21 01:06:59;;;;;;;25.27;19.45;;;;;;;;;;5140121;27;20034;-86
2023/03/21 01:09:26;;;;;;;29.42;19.88;;;;;;;;;;5140188;27;20031;-86
2023/03/21 01:11:53;;;;;;;25.88;18.45;;;;;;;;;;5139945;27;20454;-86
2023/03/21 01:14:20;;;;;;;29.30;20.10;;;;;;;;;;5139915;27;20080;-85
2023/03/21 01:16:46;;;;;;;29.70;19.45;;;;;;;;;;5139726;27;20416;-86
2023/03/21 01:19:14;;;;;;;28.95;19.77;;;;;;;;;;5139634;27;20023;-86
2023/03/21 01:21:40;;;;;;;24.85;18.77;;;;;;;;;;5138691;27;20075;-85
2023/03/21 01:24:06;;;;;;;26.50;19.45;;;;;;;;;;5139764;27;20038;-86
2023/03/21 01:26:32;;;;;;;25.67;18.85;;;;;;;;;;5139783;27;20015;-87
2023/03/21 01:28:58;;;;;;;28.33;19.58;;;;;;;;;;5138568;27;20029;-86
2023/03/21 01:31:24;;;;;;;24.55;18.60;;;;;;;;;;5138774;27;20020;-86
2023/03/21 01:33:50;;;;;;;23.17;18.13;;;;;;;;;;5138549;27;20354;-86
2023/03/21 01:36:18;;;;;;;26.23;18.75;;;;;;;;;;5138135;27;20044;-86
2023/03/21 01:38:44;;;;;;;26.60;19.50;;;;;;;;;;5139483;27;20023;-86
2023/03/21 01:41:31;;;;;;;28.23;19.63;;;;;;;;;;5139098;27;20027;-86
2023/03/21 01:43:57;;;;;;;25.77;19.00;;;;;;;;;;5058831;28;20067;-86
2023/03/21 01:46:38;;;;;;;30.80;19.92;;;;;;;;;;5076408;28;20441;-86
2023/03/21 01:49:07;;;;;;;25.83;18.83;;;;;;;;;;5076234;28;20056;-85
2023/03/21 01:51:35;;;;;;;24.90;19.73;;;;;;;;;;5076133;28;20389;-85
2023/03/21 01:54:01;;;;;;;30.15;20.25;;;;;;;;;;5076130;28;20035;-86
2023/03/21 01:56:35;;;;;;;29.67;19.35;;;;;;;;;;5076266;28;20031;-86
2023/03/21 01:59:05;;;;;;;30.52;21.33;;;;;;;;;;5059259;28;20028;-87
2023/03/21 02:01:33;;;;;;;30.05;23.25;;;;;;;;;;5059422;28;20064;-87
2023/03/21 02:04:02;;;;;;;30.80;22.30;;;;;;;;;;5059227;28;20037;-86
2023/03/21 02:06:37;;;;;;;28.42;22.30;;;;;;;;;;5076040;28;20158;-87
2023/03/21 02:09:08;;;;;;;31.05;23.55;;;;;;;;;;5059302;28;20036;-87
2023/03/21 02:11:34;;;;;;;30.30;22.95;;;;;;;;;;5059094;28;20024;-86
2023/03/21 02:14:01;;;;;;;30.88;22.17;;;;;;;;;;5075845;28;20312;-86
2023/03/21 02:16:36;;;;;;;31.73;20.13;;;;;;;;;;5076152;28;20017;-86
2023/03/21 02:19:21;;;;;;;27.02;19.98;;;;;;;;;;5076129;28;20040;-86
2023/03/21 02:21:50;;;;;;;31.98;19.63;;;;;;;;;;5127507;27;20083;-87
2023/03/21 02:24:31;;;;;;;26.55;19.88;;;;;;;;;;5138653;27;20035;-86
2023/03/21 02:27:03;;;;;;;29.75;19.67;;;;;;;;;;5137763;27;20019;-86
2023/03/21 02:29:47;;;;;;;29.73;20.17;;;;;;;;;;5138668;27;20035;-86
2023/03/21 02:32:31;;;;;;;29.55;20.15;;;;;;;;;;5137656;28;20016;-86
2023/03/21 02:35:11;;;;;;;26.52;19.50;;;;;;;;;;5138622;28;20137;-86
2023/03/21 02:37:49;;;;;;;27.42;20.52;;;;;;;;;;5138464;28;20047;-86
2023/03/21 02:40:37;;;;;;;28.88;20.38;;;;;;;;;;5137558;28;20058;-85
2023/03/21 02:43:07;;;;;;;29.30;19.65;;;;;;;;;;5139777;27;20137;-85
2023/03/21 02:45:38;;;;;;;29.23;20.38;;;;;;;;;;5143032;27;20034;-87
2023/03/21 02:48:16;;;;;;;25.63;19.23;;;;;;;;;;5142914;27;20031;-87
2023/03/21 02:50:51;;;;;;;29.67;19.67;;;;;;;;;;5141858;27;20031;-86
2023/03/21 02:53:19;;;;;;;29.25;20.55;;;;;;;;;;5142738;27;20019;-87
2023/03/21 02:55:46;;;;;;;29.45;20.30;;;;;;;;;;5142623;27;20424;-87
2023/03/21 02:58:15;;;;;;;26.92;20.77;;;;;;;;;;5142801;27;20027;-87
2023/03/21 03:00:43;;;;;;;27.38;20.10;;;;;;;;;;5142641;27;20435;-86
2023/03/21 03:03:10;;;;;;;26.27;19.73;;;;;;;;;;5142630;27;20050;-86
2023/03/21 03:05:40;;;;;;;27.52;19.65;;;;;;;;;;5142584;27;20091;-86
2023/03/21 03:08:09;;;;;;;24.63;19.63;;;;;;;;;;5142321;27;20118;-86
2023/03/21 03:10:56;;;;;;;27.10;20.75;;;;;;;;;;5142200;27;20031;-86
2023/03/21 03:13:31;;;;;;;27.58;19.67;;;;;;;;;;5142375;27;20026;-86
2023/03/21 03:16:12;;;;;;;26.35;20.92;;;;;;;;;;5142301;27;20320;-86
2023/03/21 03:18:47;;;;;;;28.58;20.23;;;;;;;;;;5142076;27;20441;-86
2023/03/21 03:21:13;;;;;;;26.50;20.25;;;;;;;;;;5142245;27;20072;-87
2023/03/21 03:23:44;;;;;;;26.85;20.15;;;;;;;;;;5141143;27;20023;-87
2023/03/21 03:26:33;;;;;;;29.08;19.90;;;;;;;;;;5142076;27;20051;-86
2023/03/21 03:29:17;;;;;;;30.45;20.98;;;;;;;;;;5140891;27;20328;-87
2023/03/21 03:31:53;;;;;;;29.48;22.42;;;;;;;;;;5141816;27;20354;-87
2023/03/21 03:34:21;;;;;;;28.73;22.58;;;;;;;;;;5140976;27;20392;-86
2023/03/21 03:36:54;;;;;;;29.73;20.02;;;;;;;;;;5141704;27;20119;-86
2023/03/21 03:39:22;;;;;;;26.77;20.05;;;;;;;;;;5141664;27;20416;-86
2023/03/21 03:41:48;;;;;;;31.23;21.10;;;;;;;;;;5141612;27;20030;-87
2023/03/21 03:44:14;;;;;;;31.90;21.48;;;;;;;;;;5141764;27;20023;-86
2023/03/21 03:46:47;;;;;;;28.85;20.60;;;;;;;;;;5140711;27;20028;-86
2023/03/21 03:49:16;;;;;;;28.23;20.58;;;;;;;;;;5141784;27;20030;-86
2023/03/21 03:51:55;;;;;;;27.08;20.25;;;;;;;;;;5141615;27;20028;-86
2023/03/21 03:54:39;;;;;;;26.05;19.38;;;;;;;;;;5139717;27;20030;-86
2023/03/21 03:57:05;;;;;;;25.83;19.00;;;;;;;;;;5141406;27;20031;-87
2023/03/21 03:59:34;;;;;;;29.20;20.02;;;;;;;;;;5140565;27;20302;-86
2023/03/21 04:02:00;;;;;;;27.52;19.63;;;;;;;;;;5141342;27;20030;-86
2023/03/21 04:04:27;;;;;;;28.20;20.15;;;;;;;;;;5141390;27;20027;-87
2023/03/21 04:06:53;;;;;;;25.58;20.35;;;;;;;;;;5141599;27;20037;-87
2023/03/21 04:09:19;;;;;;;30.63;22.08;;;;;;;;;;5140942;27;20035;-86
2023/03/21 04:11:45;;;;;;;30.83;23.88;;;;;;;;;;5141171;27;20106;-87
2023/03/21 04:14:11;;;;;;;29.85;23.70;;;;;;;;;;5141061;27;20043;-87
2023/03/21 04:16:37;;;;;;;29.20;22.20;;;;;;;;;;5140153;27;20027;-87
2023/03/21 04:19:03;;;;;;;35.17;23.95;;;;;;;;;;5140979;27;20033;-87
2023/03/21 04:21:30;;;;;;;43.58;32.90;;;;;;;;;;5140112;27;20030;-87
2023/03/21 04:23:56;;;;;;;35.58;28.52;;;;;;;;;;5141065;27;20035;-87
2023/03/21 04:26:23;;;;;;;31.08;21.90;;;;;;;;;;5141126;27;20023;-86
2023/03/21 04:28:50;;;;;;;29.42;21.05;;;;;;;;;;5139529;27;20027;-87
2023/03/21 04:31:16;;;;;;;28.73;21.05;;;;;;;;;;5122581;27;20023;-87
2023/03/21 04:33:46;;;;;;;30.73;21.48;;;;;;;;;;5101003;28;20035;-86
2023/03/21 04:36:23;;;;;;;33.20;23.75;;;;;;;;;;5102912;28;20090;-87
2023/03/21 04:38:50;;;;;;;34.85;23.80;;;;;;;;;;5120254;28;20444;-87
2023/03/21 04:41:16;;;;;;;32.67;21.75;;;;;;;;;;5119766;28;20058;-89
2023/03/21 04:43:43;;;;;;;28.02;21.95;;;;;;;;;;5120155;28;20020;-92
2023/03/21 04:46:09;;;;;;;33.03;24.00;;;;;;;;;;5120032;28;20346;-94
2023/03/21 04:48:36;;;;;;;40.58;24.27;;;;;;;;;;5119778;28;20083;-93
2023/03/21 04:51:02;;;;;;;35.17;25.17;;;;;;;;;;5119905;28;20023;-93
2023/03/21 04:53:29;;;;;;;39.50;25.15;;;;;;;;;;5119848;28;20032;-93
2023/03/21 04:55:56;;;;;;;33.78;23.38;;;;;;;;;;5119988;28;20023;-93
2023/03/21 04:58:22;;;;;;;31.55;22.08;;;;;;;;;;5119498;27;20037;-93
2023/03/21 05:00:51;;;;;;;26.00;19.88;;;;;;;;;;5119587;28;20019;-94
2023/03/21 05:03:20;;;;;;;29.58;21.48;;;;;;;;;;5119550;28;20030;-92
2023/03/21 05:05:46;;;;;;;42.13;25.80;;;;;;;;;;5119091;28;20031;-93
2023/03/21 05:08:13;;;;;;;51.20;29.02;;;;;;;;;;5118902;28;20024;-93
2023/03/21 05:10:39;;;;;;;40.80;26.80;;;;;;;;;;5119632;28;20098;-92
2023/03/21 05:13:05;;;;;;;37.30;26.25;;;;;;;;;;5118635;28;20020;-93
2023/03/21 05:15:31;;;;;;;32.90;22.48;;;;;;;;;;5119179;28;20111;-93
2023/03/21 05:17:58;;;;;;;29.48;20.30;;;;;;;;;;5118372;28;20413;-93
2023/03/21 05:20:25;;;;;;;28.45;20.08;;;;;;;;;;5118284;28;20023;-92
2023/03/21 05:22:51;;;;;;;27.65;19.70;;;;;;;;;;5119126;28;20060;-93
2023/03/21 05:25:20;;;;;;;27.73;20.15;;;;;;;;;;5118427;28;20065;-93
2023/03/21 05:27:52;;;;;;;29.33;22.40;;;;;;;;;;5119228;28;20047;-93
2023/03/21 05:30:19;;;;;;;28.33;21.83;;;;;;;;;;5118123;28;20024;-93
2023/03/21 05:32:45;;;;;;;27.75;21.52;;;;;;;;;;5119379;28;20465;-93
2023/03/21 05:35:12;;;;;;;30.40;21.50;;;;;;;;;;5119123;28;20400;-92
2023/03/21 05:37:38;;;;;;;28.77;20.25;;;;;;;;;;5118731;28;20131;-93
2023/03/21 05:40:08;;;;;;;35.38;21.38;;;;;;;;;;5118987;28;20024;-94
2023/03/21 05:42:34;;;;;;;36.08;22.33;;;;;;;;;;5118846;28;20028;-92
2023/03/21 05:45:00;;;;;;;34.50;22.88;;;;;;;;;;5118860;28;20020;-91
2023/03/21 05:47:26;;;;;;;35.85;23.30;;;;;;;;;;5117389;28;20042;-90
2023/03/21 05:49:52;;;;;;;36.88;23.83;;;;;;;;;;5118810;28;20051;-91
2023/03/21 05:52:18;;;;;;;30.52;21.92;;;;;;;;;;5119003;28;20028;-91
2023/03/21 05:54:44;;;;;;;29.75;23.45;;;;;;;;;;5118886;28;20035;-91
2023/03/21 05:57:11;;;;;;;30.98;24.35;;;;;;;;;;5117827;28;20016;-91
2023/03/21 05:59:37;;;;;;;32.05;24.38;;;;;;;;;;5118493;28;20036;-90
2023/03/21 06:02:03;;;;;;;32.63;22.67;;;;;;;;;;5118568;28;20099;-90
2023/03/21 06:04:29;;;;;;;26.98;20.75;;;;;;;;;;5118646;28;20020;-92
2023/03/21 06:06:55;;;;;;;30.20;22.67;;;;;;;;;;5118869;28;20106;-91
2023/03/21 06:09:22;;;;;;;34.30;24.50;;;;;;;;;;5117454;28;20035;-91
2023/03/21 06:11:49;;;;;;;37.90;23.85;;;;;;;;;;5117284;28;20130;-92
2023/03/21 06:14:15;;;;;;;36.80;23.52;;;;;;;;;;5117444;28;20016;-90
2023/03/21 06:16:42;;;;;;;31.23;21.77;;;;;;;;;;5118443;28;20043;-91
2023/03/21 06:19:08;;;;;;;30.52;19.83;;;;;;;;;;5117981;28;20303;-91
2023/03/21 06:21:34;;;;;;;29.00;21.27;;;;;;;;;;5118328;28;20110;-91
2023/03/21 06:24:00;;;;;;;45.63;30.30;;;;;;;;;;5118221;28;20419;-91
2023/03/21 06:26:26;;;;;;;60.70;35.13;;;;;;;;;;5117406;28;20042;-90
2023/03/21 06:32:09;;;;;;;44.80;26.92;;;;;;;;;;5118166;28;20026;-89
2023/03/21 06:34:35;;;;;;;51.28;28.55;;;;;;;;;;5117936;28;20020;-89
2023/03/21 06:37:02;;;;;;;57.75;29.95;;;;;;;;;;5117129;28;20047;-91
2023/03/21 06:39:31;;;;;;;50.05;28.63;;;;;;;;;;5118240;28;20425;-91
2023/03/21 06:41:57;;;;;;;45.17;25.92;;;;;;;;;;5117314;28;20031;-91
2023/03/21 06:47:27;;;;;;;31.58;23.42;;;;;;;;;;5118206;28;20035;-91
2023/03/21 06:49:53;;;;;;;35.58;23.45;;;;;;;;;;5117108;28;20024;-91
2023/03/21 06:52:19;;;;;;;34.45;22.30;;;;;;;;;;5117091;28;20027;-91
2023/03/21 06:54:45;;;;;;;37.67;23.92;;;;;;;;;;5117805;28;20050;-90
2023/03/21 06:57:12;;;;;;;31.98;22.90;;;;;;;;;;5117101;28;20111;-90
2023/03/21 06:59:40;;;;;;;41.65;23.45;;;;;;;;;;5117954;28;20354;-92
2023/03/21 07:02:06;;;;;;;36.42;22.67;;;;;;;;;;5116938;28;20455;-91
2023/03/21 07:04:32;;;;;;;34.10;22.30;;;;;;;;;;5117972;28;20024;-91
2023/03/21 07:06:58;;;;;;;32.05;21.50;;;;;;;;;;5117780;28;20030;-92
2023/03/21 07:09:26;;;;;;;31.55;21.13;;;;;;;;;;5117672;28;20110;-92
2023/03/21 07:11:53;;;;;;;24.15;16.77;;;;;;;;;;5117930;28;20024;-91
2023/03/21 07:14:19;;;;;;;23.25;17.73;;;;;;;;;;5116866;28;20024;-91
2023/03/21 07:16:45;;;;;;;21.48;16.20;;;;;;;;;;5117060;28;20020;-92
2023/03/21 07:19:11;;;;;;;22.55;16.38;;;;;;;;;;5116868;28;20069;-90
2023/03/21 07:21:37;;;;;;;24.67;17.58;;;;;;;;;;5117728;28;20296;-91
2023/03/21 07:24:03;;;;;;;20.55;16.77;;;;;;;;;;5116742;28;20020;-90
2023/03/21 07:26:29;;;;;;;23.15;16.45;;;;;;;;;;5117566;28;20028;-91
2023/03/21 07:28:55;;;;;;;22.20;16.95;;;;;;;;;;5117111;28;20102;-90
2023/03/21 07:31:24;;;;;;;21.45;17.10;;;;;;;;;;5121137;28;20027;-91
2023/03/21 07:33:50;;;;;;;22.27;17.10;;;;;;;;;;5120504;28;20027;-91
2023/03/21 07:36:17;;;;;;;23.75;16.88;;;;;;;;;;5121367;28;20056;-91
2023/03/21 07:38:43;;;;;;;21.17;15.57;;;;;;;;;;5120437;28;20070;-89
2023/03/21 07:41:09;;;;;;;21.80;15.40;;;;;;;;;;5120372;28;20028;-91
2023/03/21 07:43:36;;;;;;;21.15;16.08;;;;;;;;;;5120918;28;20424;-91
2023/03/21 07:46:02;;;;;;;18.38;16.10;;;;;;;;;;5121077;28;20035;-90
2023/03/21 07:48:29;;;;;;;21.98;15.68;;;;;;;;;;5120905;28;20020;-91
2023/03/21 07:50:55;;;;;;;23.17;16.05;;;;;;;;;;5120303;28;20019;-90
2023/03/21 07:53:21;;;;;;;32.72;19.80;;;;;;;;;;5120191;28;20016;-91
2023/03/21 07:55:51;;;;;;;40.40;19.90;;;;;;;;;;5120799;28;20022;-92
2023/03/21 07:58:17;;;;;;;33.72;20.13;;;;;;;;;;5120080;28;20118;-92
2023/03/21 08:00:43;;;;;;;29.10;18.02;;;;;;;;;;5119954;28;20028;-92
2023/03/21 08:03:09;;;;;;;26.35;18.08;;;;;;;;;;5119857;28;20035;-92
2023/03/21 08:05:36;;;;;;;22.80;14.95;;;;;;;;;;5120818;28;20077;-91
2023/03/21 08:08:03;;;;;;;23.70;14.85;;;;;;;;;;5120761;28;20027;-86
2023/03/21 08:10:29;;;;;;;25.73;14.80;;;;;;;;;;5119939;28;20417;-90
2023/03/21 08:12:55;;;;;;;23.63;14.88;;;;;;;;;;5120219;28;20424;-86
2023/03/21 08:15:21;;;;;;;49.35;16.58;;;;;;;;;;5119456;28;20114;-90
2023/03/21 08:17:48;;;;;;;43.53;16.15;;;;;;;;;;5119530;28;20053;-90
2023/03/21 08:20:15;;;;;;;106.65;19.75;;;;;;;;;;5119325;28;20027;-91
2023/03/21 08:22:42;;;;;;;55.95;17.30;;;;;;;;;;5120342;28;20031;-91
2023/03/21 08:25:12;;;;;;;29.63;15.32;;;;;;;;;;5120319;28;20088;-90
2023/03/21 08:27:38;;;;;;;22.60;14.82;;;;;;;;;;5119421;28;20023;-91
2023/03/21 08:30:05;;;;;;;36.10;14.95;;;;;;;;;;5121190;28;20103;-91
2023/03/21 08:32:32;;;;;;;30.35;15.52;;;;;;;;;;5120559;28;20092;-90
2023/03/21 08:34:59;;;;;;;23.70;14.77;;;;;;;;;;5120420;28;20054;-89
2023/03/21 08:37:25;;;;;;;43.13;15.77;;;;;;;;;;5120300;28;20047;-90
2023/03/21 08:39:52;;;;;;;53.60;17.05;;;;;;;;;;5120172;28;20053;-91
2023/03/21 08:42:18;;;;;;;34.33;15.55;;;;;;;;;;5118828;28;20023;-90
2023/03/21 08:44:44;;;;;;;38.30;16.42;;;;;;;;;;5120180;28;20020;-90
2023/03/21 08:47:10;;;;;;;47.58;16.83;;;;;;;;;;5120199;28;20016;-90
2023/03/21 08:49:37;;;;;;;36.22;15.98;;;;;;;;;;5119732;28;20024;-90
2023/03/21 08:52:03;;;;;;;82.28;17.85;;;;;;;;;;5118824;28;20019;-90
2023/03/21 08:54:29;;;;;;;39.58;16.38;;;;;;;;;;5119052;28;20030;-90
2023/03/21 08:56:55;;;;;;;22.70;15.68;;;;;;;;;;5119777;28;20023;-90
2023/03/21 08:59:21;;;;;;;32.00;16.13;;;;;;;;;;5120004;27;20076;-90
2023/03/21 09:01:47;;;;;;;29.77;15.88;;;;;;;;;;5118709;28;20028;-88
2023/03/21 09:04:13;;;;;;;20.27;14.98;;;;;;;;;;5119707;28;20034;-89
2023/03/21 09:06:46;;;;;;;19.40;15.73;;;;;;;;;;5119573;28;20027;-91
2023/03/21 09:09:13;;;;;;;25.40;17.00;;;;;;;;;;5118399;28;20118;-90
2023/03/21 09:11:39;;;;;;;37.47;16.88;;;;;;;;;;5119297;28;20420;-88
2023/03/21 09:14:05;;;;;;;27.92;15.65;;;;;;;;;;5119405;28;20026;-89
2023/03/21 09:16:31;;;;;;;24.50;15.55;;;;;;;;;;5118440;28;20023;-89
2023/03/21 09:18:58;;;;;;;19.63;15.10;;;;;;;;;;5118098;28;20081;-89
2023/03/21 09:21:24;;;;;;;20.40;15.50;;;;;;;;;;5119399;28;20054;-89
2023/03/21 09:23:51;;;;;;;19.45;15.48;;;;;;;;;;5119213;28;20020;-90
2023/03/21 09:26:18;;;;;;;43.08;16.67;;;;;;;;;;5119168;28;20033;-89
2023/03/21 09:28:45;;;;;;;20.85;15.07;;;;;;;;;;5118874;28;20026;-90
2023/03/21 09:31:15;;;;;;;20.95;13.57;;;;;;;;;;5118688;28;20494;-90
2023/03/21 09:33:41;;;;;;;20.20;14.68;;;;;;;;;;5118125;28;20020;-89
2023/03/21 09:36:12;;;;;;;26.05;15.57;;;;;;;;;;5118921;28;20051;-89
2023/03/21 09:38:44;;;;;;;25.67;15.77;;;;;;;;;;5119288;28;20028;-90
2023/03/21 09:41:26;;;;;;;17.65;14.20;;;;;;;;;;5119166;28;20034;-90
2023/03/21 09:47:02;;;;;;;37.25;16.83;;;;;;;;;;5119286;28;20027;-90
2023/03/21 09:49:31;;;;;;;29.13;14.75;;;;;;;;;;5118826;28;20051;-90
2023/03/21 09:52:04;;;;;;;23.90;14.38;;;;;;;;;;5118601;28;20103;-89
2023/03/21 09:54:34;;;;;;;20.42;15.48;;;;;;;;;;5117692;28;20016;-90
2023/03/21 09:57:03;;;;;;;21.90;13.50;;;;;;;;;;5117814;28;20023;-90
2023/03/21 09:59:36;;;;;;;20.48;12.77;;;;;;;;;;5118592;28;20031;-90
2023/03/21 10:02:04;;;;;;;15.38;12.20;;;;;;;;;;5118798;28;20032;-89
2023/03/21 10:04:32;;;;;;;13.57;11.75;;;;;;;;;;5118775;28;20023;-89
2023/03/21 10:07:01;;;;;;;17.20;12.80;;;;;;;;;;5117447;28;20038;-90
2023/03/21 10:09:28;;;;;;;14.10;11.65;;;;;;;;;;5117408;28;20161;-90
2023/03/21 10:12:00;;;;;;;14.88;10.63;;;;;;;;;;5117579;28;20027;-91
2023/03/21 10:14:35;;;;;;;13.45;10.65;;;;;;;;;;5117570;28;20027;-91
2023/03/21 10:17:13;;;;;;;12.85;10.85;;;;;;;;;;5118478;28;20023;-91
2023/03/21 10:19:40;;;;;;;15.75;10.68;;;;;;;;;;5117238;28;20034;-90
2023/03/21 10:22:08;;;;;;;14.35;9.68;;;;;;;;;;5118368;28;20027;-87
2023/03/21 10:24:34;;;;;;;14.63;10.88;;;;;;;;;;5117556;28;20299;-91
2023/03/21 10:27:01;;;;;;;11.15;9.80;;;;;;;;;;5118498;28;20464;-90
2023/03/21 10:29:31;;;;;;;11.45;9.50;;;;;;;;;;5118197;28;20335;-90
2023/03/21 10:31:57;;;;;;;21.95;10.13;;;;;;;;;;5118454;28;20034;-90
2023/03/21 10:34:28;;;;;;;21.73;10.75;;;;;;;;;;5117231;28;20047;-91
2023/03/21 10:36:54;;;;;;;14.50;8.80;;;;;;;;;;5118030;28;20093;-91
2023/03/21 10:39:40;;;;;;;39.05;9.65;;;;;;;;;;5118049;28;20035;-90
2023/03/21 10:42:10;;;;;;;19.75;8.90;;;;;;;;;;5118125;28;20027;-90
2023/03/21 10:44:37;;;;;;;19.05;10.50;;;;;;;;;;5117116;28;20042;-91
2023/03/21 10:47:07;;;;;;;11.43;8.88;;;;;;;;;;5117948;28;20027;-91
2023/03/21 10:49:35;;;;;;;11.13;8.40;;;;;;;;;;5118225;28;20031;-91
2023/03/21 10:52:07;;;;;;;10.90;8.77;;;;;;;;;;5117059;28;20023;-90
2023/03/21 10:54:34;;;;;;;13.52;6.53;;;;;;;;;;5117227;28;20027;-91
2023/03/21 10:57:15;;;;;;;10.90;6.25;;;;;;;;;;5118322;28;20031;-91
2023/03/21 11:00:13;;;;;;;9.60;4.60;;;;;;;;;;5117829;28;20016;-90
2023/03/21 11:02:40;;;;;;;8.23;3.90;;;;;;;;;;5118117;28;20040;-90
2023/03/21 11:05:10;;;;;;;6.60;2.97;;;;;;;;;;5120167;28;20024;-91
2023/03/21 11:07:36;;;;;;;7.22;3.92;;;;;;;;;;5121611;28;20035;-90
2023/03/21 11:10:11;;;;;;;6.75;4.20;;;;;;;;;;5121335;28;20413;-91
2023/03/21 11:12:40;;;;;;;4.60;3.22;;;;;;;;;;5122021;28;20099;-90
2023/03/21 11:15:29;;;;;;;3.15;2.75;;;;;;;;;;5121667;28;20019;-88
2023/03/21 11:17:56;;;;;;;4.72;3.05;;;;;;;;;;5121709;28;20462;-91
2023/03/21 11:20:22;;;;;;;3.80;2.40;;;;;;;;;;5120690;28;20031;-89
2023/03/21 11:22:49;;;;;;;3.53;2.70;;;;;;;;;;5121651;28;20414;-91
2023/03/21 11:25:22;;;;;;;4.13;2.70;;;;;;;;;;5120439;28;20031;-91
2023/03/21 11:28:08;;;;;;;5.20;3.72;;;;;;;;;;5121645;28;20034;-91
2023/03/21 11:30:34;;;;;;;7.63;4.18;;;;;;;;;;5121107;28;20036;-91
2023/03/21 11:33:02;;;;;;;4.72;3.75;;;;;;;;;;5120342;28;20027;-89
2023/03/21 11:35:32;;;;;;;5.88;3.80;;;;;;;;;;5121360;28;20402;-91
2023/03/21 11:37:58;;;;;;;7.88;4.22;;;;;;;;;;5121304;28;20051;-90
2023/03/21 11:40:34;;;;;;;5.57;3.70;;;;;;;;;;5120323;28;20027;-90
2023/03/21 11:43:18;;;;;;;9.07;4.82;;;;;;;;;;5121314;28;20054;-86
2023/03/21 11:45:57;;;;;;;7.15;5.57;;;;;;;;;;5121074;28;20306;-89
2023/03/21 11:48:23;;;;;;;9.88;6.32;;;;;;;;;;5121041;28;20058;-89
2023/03/21 11:50:51;;;;;;;9.27;5.15;;;;;;;;;;5121055;28;20016;-89
2023/03/21 11:53:27;;;;;;;7.75;4.40;;;;;;;;;;5120087;28;20039;-89
2023/03/21 11:55:53;;;;;;;6.18;3.25;;;;;;;;;;5120213;28;20024;-89
2023/03/21 11:58:45;;;;;;;8.15;3.50;;;;;;;;;;5121117;28;20054;-88
2023/03/21 12:01:25;;;;;;;7.43;3.28;;;;;;;;;;5115414;28;20047;-89
2023/03/21 12:03:51;;;;;;;4.28;2.83;;;;;;;;;;5119866;28;20031;-88
2023/03/21 12:06:22;;;;;;;3.95;2.75;;;;;;;;;;5120924;27;20047;-89
2023/03/21 12:08:54;;;;;;;6.57;3.10;;;;;;;;;;5119721;28;20036;-89
2023/03/21 12:11:20;;;;;;;4.20;3.22;;;;;;;;;;5120584;28;20298;-89
2023/03/21 12:14:01;;;;;;;4.00;3.20;;;;;;;;;;5120856;28;20020;-87
2023/03/21 12:16:34;;;;;;;6.68;4.22;;;;;;;;;;5119863;28;20055;-89
2023/03/21 12:19:24;;;;;;;4.95;3.00;;;;;;;;;;5120509;28;20027;-89
2023/03/21 12:21:50;;;;;;;5.75;3.17;;;;;;;;;;5021661;28;20124;-89
2023/03/21 12:24:37;;;;;;;55.03;33.78;;;;;;;;;;5021392;28;20042;-87
2023/03/21 12:27:09;;;;;;;19.63;10.35;;;;;;;;;;5038124;28;20034;-87
2023/03/21 12:29:42;;;;;;;22.50;9.90;;;;;;;;;;5037821;28;20028;-88
2023/03/21 12:32:17;;;;;;;14.57;3.83;;;;;;;;;;5038016;28;20017;-87
2023/03/21 12:34:49;;;;;;;5.50;3.95;;;;;;;;;;5037924;28;20030;-87
2023/03/21 12:37:24;;;;;;;5.25;2.80;;;;;;;;;;5037643;28;20045;-87
2023/03/21 12:39:54;;;;;;;5.30;2.33;;;;;;;;;;5037847;28;20379;-87
2023/03/21 12:42:24;;;;;;;3.50;2.28;;;;;;;;;;5037933;28;20033;-87
2023/03/21 12:45:10;;;;;;;3.95;2.28;;;;;;;;;;5021208;28;20132;-87
2023/03/21 12:47:38;;;;;;;4.32;1.90;;;;;;;;;;5037404;28;20420;-87
2023/03/21 12:50:14;;;;;;;2.10;1.80;;;;;;;;;;5037662;28;20029;-87
2023/03/21 12:52:45;;;;;;;9.38;2.13;;;;;;;;;;5037622;28;20071;-87
2023/03/21 12:55:17;;;;;;;3.58;2.22;;;;;;;;;;5021000;28;20072;-87
2023/03/21 12:57:56;;;;;;;4.22;2.30;;;;;;;;;;5041821;28;20041;-87
2023/03/21 13:00:28;;;;;;;5.72;1.95;;;;;;;;;;5119789;28;20019;-87
2023/03/21 13:02:54;;;;;;;3.45;2.00;;;;;;;;;;5119866;28;20020;-83
2023/03/21 13:05:26;;;;;;;4.57;2.33;;;;;;;;;;5118530;28;20057;-86
2023/03/21 13:07:54;;;;;;;6.80;2.72;;;;;;;;;;5119793;28;20044;-88
2023/03/21 13:10:21;;;;;;;3.75;1.75;;;;;;;;;;5119696;28;20027;-88
2023/03/21 13:23:36;;;;;;;3.00;1.90;;;;;;;;;;5074602;27;20410;-91
2023/03/21 13:26:03;;;;;;;2.60;1.75;;;;;;;;;;5073852;28;20036;-90
2023/03/21 13:28:33;;;;;;;3.72;2.22;;;;;;;;;;5074919;28;20074;-91
2023/03/21 13:31:17;;;;;;;4.10;2.00;;;;;;;;;;5074533;28;20021;-86
2023/03/21 13:33:47;;;;;;;5.72;1.75;;;;;;;;;;5074782;28;20016;-90
2023/03/21 13:36:14;;;;;;;3.15;1.60;;;;;;;;;;5074577;28;20099;-90
2023/03/21 13:38:40;;;;;;;3.97;1.50;;;;;;;;;;5073669;28;20020;-91
2023/03/21 13:41:08;;;;;;;6.85;1.70;;;;;;;;;;5073554;28;20025;-90
2023/03/21 13:46:45;;;;;;;5.47;1.77;;;;;;;;;;5074582;28;20128;-90
2023/03/21 13:49:11;;;;;;;3.38;1.92;;;;;;;;;;5074610;28;20029;-90
2023/03/21 13:51:41;;;;;;;4.20;2.10;;;;;;;;;;5074129;28;20032;-90
2023/03/21 13:54:08;;;;;;;5.00;2.47;;;;;;;;;;5073449;28;20063;-90
2023/03/21 13:56:46;;;;;;;6.53;2.40;;;;;;;;;;5074153;28;20028;-90
2023/03/21 13:59:31;;;;;;;2.88;2.00;;;;;;;;;;5074147;28;20029;-90
2023/03/21 14:01:57;;;;;;;3.00;1.88;;;;;;;;;;5074221;28;20025;-90
2023/03/21 14:04:26;;;;;;;4.30;2.10;;;;;;;;;;5074161;28;20108;-91
2023/03/21 14:06:55;;;;;;;6.53;1.80;;;;;;;;;;5073934;28;20078;-90
2023/03/21 14:09:34;;;;;;;5.65;2.85;;;;;;;;;;5073310;28;20430;-90
2023/03/21 14:12:01;;;;;;;7.60;1.95;;;;;;;;;;5074077;28;20052;-87
2023/03/21 14:14:31;;;;;;;3.03;2.00;;;;;;;;;;5073574;28;20052;-85
2023/03/21 14:16:57;;;;;;;3.45;1.90;;;;;;;;;;5070060;28;20300;-86
2023/03/21 14:19:28;;;;;;;5.95;1.88;;;;;;;;;;5053996;28;20354;-90
2023/03/21 14:21:55;;;;;;;;;;;;;;;;;;5054204;28;20344;-90
2023/03/21 14:24:21;;;;;;;4.45;2.25;;;;;;;;;;5040554;28;20236;-89
2023/03/21 14:26:53;;;;;;;5.10;1.65;;;;;;;;;;5039433;28;20040;-90
2023/03/21 14:29:33;;;;;;;2.75;1.58;;;;;;;;;;5039525;28;20077;-92
2023/03/21 14:31:59;;;;;;;3.90;1.63;;;;;;;;;;5039295;28;20029;-91
2023/03/21 14:34:30;;;;;;;2.47;1.80;;;;;;;;;;5040335;28;20033;-90
2023/03/21 14:36:57;;;;;;;3.03;1.75;;;;;;;;;;5039060;28;20411;-89
2023/03/21 14:39:25;;;;;;;2.85;1.80;;;;;;;;;;5039189;28;20021;-90
2023/03/21 14:41:56;;;;;;;3.72;1.95;;;;;;;;;;5040065;28;20415;-90
2023/03/21 14:44:27;;;;;;;2.03;1.40;;;;;;;;;;5040244;28;20036;-89
2023/03/21 14:46:59;;;;;;;4.43;1.53;;;;;;;;;;5040160;28;20034;-89
2023/03/21 14:49:32;;;;;;;5.35;1.70;;;;;;;;;;5039073;28;20048;-89
2023/03/21 14:52:09;;;;;;;3.58;1.98;;;;;;;;;;5039134;28;20033;-90
2023/03/21 14:54:39;;;;;;;3.25;1.90;;;;;;;;;;5040042;28;20060;-90
2023/03/21 14:57:07;;;;;;;3.15;1.92;;;;;;;;;;5039735;28;20025;-90
2023/03/21 14:59:38;;;;;;;8.45;2.30;;;;;;;;;;5038476;28;20025;-80